sensor_id;sensor_type;location;lat;lon;timestamp;pressure;altitude;pressure_sealevel;temperature;humidity
46944;BME280;32678;43.852;25.952;2023-04-01T00:03:20;100198.88;;;14.47;57.31
46944;BME280;32678;43.852;25.952;2023-04-01T00:08:17;100189.94;;;14.50;57.54
46944;BME280;32678;43.852;25.952;2023-04-01T00:13:14;100173.59;;;14.59;57.15
46944;BME280;32678;43.852;25.952;2023-04-01T00:18:12;100173.38;;;14.62;56.75
46944;BME280;32678;43.852;25.952;2023-04-01T00:23:09;100171.03;;;14.57;56.35
46944;BME280;32678;43.852;25.952;2023-04-01T00:28:06;100164.03;;;14.56;56.47
46944;BME280;32678;43.852;25.952;2023-04-01T00:33:02;100159.63;;;14.57;56.43
46944;BME280;32678;43.852;25.952;2023-04-01T00:38:00;100157.06;;;14.41;57.21
46944;BME280;32678;43.852;25.952;2023-04-01T00:42:57;100149.72;;;14.46;57.34
46944;BME280;32678;43.852;25.952;2023-04-01T00:47:54;100134.13;;;14.42;57.16
46944;BME280;32678;43.852;25.952;2023-04-01T00:52:51;100130.59;;;14.57;56.99
46944;BME280;32678;43.852;25.952;2023-04-01T00:57:49;100119.19;;;14.56;57.11
46944;BME280;32678;43.852;25.952;2023-04-01T01:02:47;100112.50;;;14.37;57.42
46944;BME280;32678;43.852;25.952;2023-04-01T01:07:46;100113.31;;;14.37;58.73
46944;BME280;32678;43.852;25.952;2023-04-01T01:12:50;100098.50;;;14.35;59.29
46944;BME280;32678;43.852;25.952;2023-04-01T01:17:56;100108.63;;;14.42;59.30
46944;BME280;32678;43.852;25.952;2023-04-01T01:23:03;100095.38;;;14.28;60.17
46944;BME280;32678;43.852;25.952;2023-04-01T01:28:14;100094.63;;;14.26;60.22
46944;BME280;32678;43.852;25.952;2023-04-01T01:33:15;100085.50;;;14.31;59.66
46944;BME280;32678;43.852;25.952;2023-04-01T01:38:16;100081.78;;;14.20;59.20
46944;BME280;32678;43.852;25.952;2023-04-01T01:43:24;100044.50;;;14.12;59.48
46944;BME280;32678;43.852;25.952;2023-04-01T01:48:22;100056.00;;;14.25;59.55
46944;BME280;32678;43.852;25.952;2023-04-01T01:53:21;100057.97;;;14.21;60.01
46944;BME280;32678;43.852;25.952;2023-04-01T01:58:19;100042.16;;;14.21;59.74
46944;BME280;32678;43.852;25.952;2023-04-01T02:03:17;100042.56;;;14.00;60.57
46944;BME280;32678;43.852;25.952;2023-04-01T02:08:16;100032.69;;;14.03;60.72
46944;BME280;32678;43.852;25.952;2023-04-01T02:13:20;100029.47;;;13.98;61.07
46944;BME280;32678;43.852;25.952;2023-04-01T02:18:19;100031.31;;;13.82;61.53
46944;BME280;32678;43.852;25.952;2023-04-01T02:23:16;100026.56;;;13.73;61.92
46944;BME280;32678;43.852;25.952;2023-04-01T02:28:13;100020.41;;;13.58;62.32
46944;BME280;32678;43.852;25.952;2023-04-01T02:33:13;100016.53;;;13.64;61.69
46944;BME280;32678;43.852;25.952;2023-04-01T02:38:10;100010.09;;;13.54;60.53
46944;BME280;32678;43.852;25.952;2023-04-01T02:43:07;99999.00;;;13.49;60.67
46944;BME280;32678;43.852;25.952;2023-04-01T02:48:05;99995.84;;;13.26;61.19
46944;BME280;32678;43.852;25.952;2023-04-01T02:53:02;100001.31;;;13.23;61.44
46944;BME280;32678;43.852;25.952;2023-04-01T02:58:01;99984.81;;;13.20;61.48
46944;BME280;32678;43.852;25.952;2023-04-01T03:02:59;99981.59;;;13.30;61.62
46944;BME280;32678;43.852;25.952;2023-04-01T03:07:56;99978.09;;;13.45;61.70
46944;BME280;32678;43.852;25.952;2023-04-01T03:12:54;99961.38;;;13.31;61.12
46944;BME280;32678;43.852;25.952;2023-04-01T03:17:50;99992.78;;;13.50;61.42
46944;BME280;32678;43.852;25.952;2023-04-01T03:22:47;99982.50;;;13.29;61.73
46944;BME280;32678;43.852;25.952;2023-04-01T03:27:45;99985.00;;;13.32;61.49
46944;BME280;32678;43.852;25.952;2023-04-01T03:32:42;99982.69;;;13.26;61.36
46944;BME280;32678;43.852;25.952;2023-04-01T03:37:40;99991.38;;;13.13;61.31
46944;BME280;32678;43.852;25.952;2023-04-01T03:42:39;99983.13;;;13.19;61.06
46944;BME280;32678;43.852;25.952;2023-04-01T03:47:37;99972.94;;;13.13;60.60
46944;BME280;32678;43.852;25.952;2023-04-01T03:52:35;99973.78;;;13.13;60.44
46944;BME280;32678;43.852;25.952;2023-04-01T03:57:32;99980.91;;;13.27;60.16
46944;BME280;32678;43.852;25.952;2023-04-01T04:02:36;99955.84;;;13.35;59.77
46944;BME280;32678;43.852;25.952;2023-04-01T04:07:34;99963.47;;;13.56;59.19
46944;BME280;32678;43.852;25.952;2023-04-01T04:12:34;99952.00;;;13.57;58.76
46944;BME280;32678;43.852;25.952;2023-04-01T04:17:31;99949.78;;;13.49;58.96
46944;BME280;32678;43.852;25.952;2023-04-01T04:22:28;99943.28;;;13.25;59.27
46944;BME280;32678;43.852;25.952;2023-04-01T04:27:25;99933.19;;;13.33;58.20
46944;BME280;32678;43.852;25.952;2023-04-01T04:32:31;99954.41;;;12.98;60.45
46944;BME280;32678;43.852;25.952;2023-04-01T04:37:28;99928.25;;;12.95;60.69
46944;BME280;32678;43.852;25.952;2023-04-01T04:42:26;99953.53;;;12.67;61.25
46944;BME280;32678;43.852;25.952;2023-04-01T04:47:29;99950.19;;;12.47;62.22
46944;BME280;32678;43.852;25.952;2023-04-01T04:52:26;99918.22;;;12.39;61.73
46944;BME280;32678;43.852;25.952;2023-04-01T04:57:22;99938.06;;;12.45;62.20
46944;BME280;32678;43.852;25.952;2023-04-01T05:02:24;99934.28;;;12.66;61.60
46944;BME280;32678;43.852;25.952;2023-04-01T05:07:21;99940.06;;;12.73;60.82
46944;BME280;32678;43.852;25.952;2023-04-01T05:12:18;99932.78;;;12.93;60.40
46944;BME280;32678;43.852;25.952;2023-04-01T05:17:28;99923.16;;;13.08;59.81
46944;BME280;32678;43.852;25.952;2023-04-01T05:22:25;99928.25;;;12.95;60.15
46944;BME280;32678;43.852;25.952;2023-04-01T05:27:22;99935.06;;;13.15;60.24
46944;BME280;32678;43.852;25.952;2023-04-01T05:32:19;99936.81;;;13.30;62.64
46944;BME280;32678;43.852;25.952;2023-04-01T05:37:16;99927.31;;;13.43;62.93
46944;BME280;32678;43.852;25.952;2023-04-01T05:42:13;99909.13;;;13.39;62.81
46944;BME280;32678;43.852;25.952;2023-04-01T05:47:11;99922.41;;;13.37;62.32
46944;BME280;32678;43.852;25.952;2023-04-01T05:52:08;99915.75;;;13.46;61.08
46944;BME280;32678;43.852;25.952;2023-04-01T05:57:06;99904.66;;;13.55;59.78
46944;BME280;32678;43.852;25.952;2023-04-01T06:02:03;99893.69;;;13.63;59.54
46944;BME280;32678;43.852;25.952;2023-04-01T06:07:00;99890.91;;;13.80;58.47
46944;BME280;32678;43.852;25.952;2023-04-01T06:12:04;99896.09;;;13.81;58.61
46944;BME280;32678;43.852;25.952;2023-04-01T06:17:19;99899.47;;;13.98;58.31
46944;BME280;32678;43.852;25.952;2023-04-01T06:22:31;99896.38;;;14.05;58.24
46944;BME280;32678;43.852;25.952;2023-04-01T06:27:36;99896.47;;;14.18;58.50
46944;BME280;32678;43.852;25.952;2023-04-01T06:32:49;99906.75;;;14.22;58.79
46944;BME280;32678;43.852;25.952;2023-04-01T06:37:54;99908.91;;;14.16;60.30
46944;BME280;32678;43.852;25.952;2023-04-01T06:42:56;99908.78;;;13.89;62.48
46944;BME280;32678;43.852;25.952;2023-04-01T06:48:21;99904.91;;;13.80;62.61
46944;BME280;32678;43.852;25.952;2023-04-01T06:53:51;99909.72;;;13.88;61.81
46944;BME280;32678;43.852;25.952;2023-04-01T06:59:10;99896.66;;;13.86;61.86
46944;BME280;32678;43.852;25.952;2023-04-01T07:04:11;99904.19;;;13.93;62.04
46944;BME280;32678;43.852;25.952;2023-04-01T07:09:12;99905.88;;;13.94;62.90
46944;BME280;32678;43.852;25.952;2023-04-01T07:14:30;99915.72;;;13.76;64.33
46944;BME280;32678;43.852;25.952;2023-04-01T07:19:31;99914.81;;;13.77;64.17
46944;BME280;32678;43.852;25.952;2023-04-01T07:24:32;99915.25;;;13.83;64.52
46944;BME280;32678;43.852;25.952;2023-04-01T07:29:33;99911.53;;;13.87;64.51
46944;BME280;32678;43.852;25.952;2023-04-01T07:34:33;99926.56;;;13.85;64.55
46944;BME280;32678;43.852;25.952;2023-04-01T07:39:36;99917.31;;;13.78;64.01
46944;BME280;32678;43.852;25.952;2023-04-01T07:44:47;99922.06;;;13.87;64.51
46944;BME280;32678;43.852;25.952;2023-04-01T07:49:52;99921.03;;;14.04;64.72
46944;BME280;32678;43.852;25.952;2023-04-01T07:55:05;99899.47;;;13.98;66.22
46944;BME280;32678;43.852;25.952;2023-04-01T08:00:08;99870.41;;;14.13;65.11
46944;BME280;32678;43.852;25.952;2023-04-01T08:05:24;99896.22;;;14.51;63.01
46944;BME280;32678;43.852;25.952;2023-04-01T08:10:25;99886.97;;;14.58;62.01
46944;BME280;32678;43.852;25.952;2023-04-01T08:16:01;99884.69;;;14.80;60.75
46944;BME280;32678;43.852;25.952;2023-04-01T08:21:18;99873.72;;;14.45;61.27
46944;BME280;32678;43.852;25.952;2023-04-01T08:26:19;99880.75;;;14.59;59.76
46944;BME280;32678;43.852;25.952;2023-04-01T08:31:18;99882.47;;;14.60;59.67
46944;BME280;32678;43.852;25.952;2023-04-01T08:36:21;99875.38;;;14.74;58.23
46944;BME280;32678;43.852;25.952;2023-04-01T08:41:35;99883.41;;;15.00;58.37
46944;BME280;32678;43.852;25.952;2023-04-01T08:52:28;99875.19;;;15.04;58.15
46944;BME280;32678;43.852;25.952;2023-04-01T08:57:33;99866.66;;;15.13;57.61
46944;BME280;32678;43.852;25.952;2023-04-01T09:08:38;99868.81;;;15.34;56.79
46944;BME280;32678;43.852;25.952;2023-04-01T09:13:50;99866.28;;;15.32;57.39
46944;BME280;32678;43.852;25.952;2023-04-01T09:18:58;99860.16;;;15.44;57.41
46944;BME280;32678;43.852;25.952;2023-04-01T09:24:17;99860.06;;;15.46;58.15
46944;BME280;32678;43.852;25.952;2023-04-01T09:29:25;99868.06;;;15.58;58.26
46944;BME280;32678;43.852;25.952;2023-04-01T09:34:45;99865.19;;;15.74;58.23
46944;BME280;32678;43.852;25.952;2023-04-01T09:40:12;99860.34;;;15.81;58.22
46944;BME280;32678;43.852;25.952;2023-04-01T09:45:22;99847.38;;;15.78;57.83
46944;BME280;32678;43.852;25.952;2023-04-01T10:01:43;99841.84;;;16.06;59.29
46944;BME280;32678;43.852;25.952;2023-04-01T10:06:52;99811.63;;;15.97;59.50
46944;BME280;32678;43.852;25.952;2023-04-01T10:22:28;99812.00;;;16.17;58.05
46944;BME280;32678;43.852;25.952;2023-04-01T10:27:41;99800.97;;;16.23;57.14
46944;BME280;32678;43.852;25.952;2023-04-01T10:33:16;99785.84;;;16.25;56.27
46944;BME280;32678;43.852;25.952;2023-04-01T10:54:40;99783.63;;;16.31;54.44
46944;BME280;32678;43.852;25.952;2023-04-01T11:00:32;99779.31;;;16.18;54.81
46944;BME280;32678;43.852;25.952;2023-04-01T11:16:50;99769.09;;;16.00;56.27
46944;BME280;32678;43.852;25.952;2023-04-01T11:22:10;99756.72;;;16.01;57.08
46944;BME280;32678;43.852;25.952;2023-04-01T11:27:25;99757.84;;;16.10;57.22
46944;BME280;32678;43.852;25.952;2023-04-01T11:38:00;99726.41;;;15.81;59.10
46944;BME280;32678;43.852;25.952;2023-04-01T11:43:38;99720.91;;;15.84;59.92
46944;BME280;32678;43.852;25.952;2023-04-01T11:48:58;99729.94;;;16.06;59.60
46944;BME280;32678;43.852;25.952;2023-04-01T11:54:05;99726.50;;;15.80;60.48
46944;BME280;32678;43.852;25.952;2023-04-01T11:59:18;99719.34;;;15.82;60.17
46944;BME280;32678;43.852;25.952;2023-04-01T12:04:26;99713.66;;;16.12;59.68
46944;BME280;32678;43.852;25.952;2023-04-01T12:09:37;99708.25;;;15.64;61.98
46944;BME280;32678;43.852;25.952;2023-04-01T12:14:42;99706.31;;;15.79;62.11
46944;BME280;32678;43.852;25.952;2023-04-01T12:19:42;99703.81;;;15.77;61.81
46944;BME280;32678;43.852;25.952;2023-04-01T12:24:45;99697.16;;;15.72;61.76
46944;BME280;32678;43.852;25.952;2023-04-01T12:29:57;99693.38;;;16.23;60.10
46944;BME280;32678;43.852;25.952;2023-04-01T12:35:02;99697.59;;;16.02;61.23
46944;BME280;32678;43.852;25.952;2023-04-01T12:40:19;99696.00;;;16.12;60.83
46944;BME280;32678;43.852;25.952;2023-04-01T12:45:30;99697.31;;;16.18;60.50
46944;BME280;32678;43.852;25.952;2023-04-01T12:50:43;99694.06;;;16.38;59.58
46944;BME280;32678;43.852;25.952;2023-04-01T12:55:48;99691.03;;;16.08;60.89
46944;BME280;32678;43.852;25.952;2023-04-01T13:00:58;99697.94;;;15.97;61.82
46944;BME280;32678;43.852;25.952;2023-04-01T13:06:11;99709.31;;;16.11;61.10
46944;BME280;32678;43.852;25.952;2023-04-01T13:11:20;99708.84;;;15.80;61.90
46944;BME280;32678;43.852;25.952;2023-04-01T13:16:28;99701.72;;;15.93;61.70
46944;BME280;32678;43.852;25.952;2023-04-01T13:21:30;99705.03;;;15.84;62.18
46944;BME280;32678;43.852;25.952;2023-04-01T13:26:34;99702.09;;;15.76;62.75
46944;BME280;32678;43.852;25.952;2023-04-01T13:31:37;99710.34;;;16.21;61.48
46944;BME280;32678;43.852;25.952;2023-04-01T13:36:37;99704.09;;;16.22;61.09
46944;BME280;32678;43.852;25.952;2023-04-01T13:41:42;99697.50;;;16.27;60.75
46944;BME280;32678;43.852;25.952;2023-04-01T13:46:54;99674.03;;;16.23;60.53
46944;BME280;32678;43.852;25.952;2023-04-01T13:52:09;99693.34;;;16.36;60.51
46944;BME280;32678;43.852;25.952;2023-04-01T13:57:21;99685.28;;;16.14;61.12
46944;BME280;32678;43.852;25.952;2023-04-01T14:02:35;99690.88;;;16.45;60.62
46944;BME280;32678;43.852;25.952;2023-04-01T14:07:40;99702.56;;;16.54;60.15
46944;BME280;32678;43.852;25.952;2023-04-01T14:12:46;99703.34;;;16.43;60.84
46944;BME280;32678;43.852;25.952;2023-04-01T14:18:02;99700.50;;;16.46;63.31
46944;BME280;32678;43.852;25.952;2023-04-01T14:28:17;99680.38;;;15.96;66.81
46944;BME280;32678;43.852;25.952;2023-04-01T14:33:20;99666.22;;;15.97;65.79
46944;BME280;32678;43.852;25.952;2023-04-01T14:38:24;99647.88;;;16.07;66.58
46944;BME280;32678;43.852;25.952;2023-04-01T14:43:28;99642.47;;;16.09;66.74
46944;BME280;32678;43.852;25.952;2023-04-01T14:48:28;99642.28;;;15.99;66.38
46944;BME280;32678;43.852;25.952;2023-04-01T14:53:29;99639.78;;;15.36;67.81
46944;BME280;32678;43.852;25.952;2023-04-01T14:58:39;99644.22;;;15.60;68.58
46944;BME280;32678;43.852;25.952;2023-04-01T15:03:37;99641.88;;;15.56;69.96
46944;BME280;32678;43.852;25.952;2023-04-01T15:08:41;99638.25;;;15.70;70.21
46944;BME280;32678;43.852;25.952;2023-04-01T15:13:48;99648.84;;;15.70;70.59
46944;BME280;32678;43.852;25.952;2023-04-01T15:18:51;99651.47;;;15.70;70.24
46944;BME280;32678;43.852;25.952;2023-04-01T15:23:52;99658.16;;;15.63;70.23
46944;BME280;32678;43.852;25.952;2023-04-01T15:28:56;99656.94;;;15.79;70.20
46944;BME280;32678;43.852;25.952;2023-04-01T15:34:03;99657.28;;;15.75;69.20
46944;BME280;32678;43.852;25.952;2023-04-01T15:39:05;99672.69;;;15.81;69.36
46944;BME280;32678;43.852;25.952;2023-04-01T15:49:28;99653.03;;;15.85;70.45
46944;BME280;32678;43.852;25.952;2023-04-01T16:00:06;99660.00;;;15.86;71.59
46944;BME280;32678;43.852;25.952;2023-04-01T16:05:16;99680.72;;;15.79;72.51
46944;BME280;32678;43.852;25.952;2023-04-01T16:15:34;99688.03;;;15.76;72.52
46944;BME280;32678;43.852;25.952;2023-04-01T16:20:42;99697.47;;;15.67;73.40
46944;BME280;32678;43.852;25.952;2023-04-01T16:25:41;99718.69;;;15.40;75.52
46944;BME280;32678;43.852;25.952;2023-04-01T16:30:44;99718.81;;;15.13;77.78
46944;BME280;32678;43.852;25.952;2023-04-01T16:35:47;99715.72;;;14.94;78.94
46944;BME280;32678;43.852;25.952;2023-04-01T16:40:47;99714.25;;;14.51;82.68
46944;BME280;32678;43.852;25.952;2023-04-01T16:45:51;99704.09;;;14.30;85.14
46944;BME280;32678;43.852;25.952;2023-04-01T16:50:52;99701.31;;;14.19;86.24
46944;BME280;32678;43.852;25.952;2023-04-01T16:55:51;99711.09;;;14.17;86.83
46944;BME280;32678;43.852;25.952;2023-04-01T17:00:53;99710.94;;;14.47;86.20
46944;BME280;32678;43.852;25.952;2023-04-01T17:05:58;99699.81;;;14.69;85.21
46944;BME280;32678;43.852;25.952;2023-04-01T17:11:02;99695.41;;;14.82;84.09
46944;BME280;32678;43.852;25.952;2023-04-01T17:16:06;99698.72;;;15.11;82.75
46944;BME280;32678;43.852;25.952;2023-04-01T17:21:06;99700.94;;;15.17;81.90
46944;BME280;32678;43.852;25.952;2023-04-01T17:26:11;99707.94;;;15.18;81.51
46944;BME280;32678;43.852;25.952;2023-04-01T17:31:17;99695.34;;;15.09;81.86
46944;BME280;32678;43.852;25.952;2023-04-01T17:36:35;99699.00;;;14.81;83.18
46944;BME280;32678;43.852;25.952;2023-04-01T17:41:36;99706.19;;;14.52;84.92
46944;BME280;32678;43.852;25.952;2023-04-01T17:46:41;99705.06;;;14.56;84.92
46944;BME280;32678;43.852;25.952;2023-04-01T17:51:43;99705.97;;;14.28;86.26
46944;BME280;32678;43.852;25.952;2023-04-01T17:56:45;99701.00;;;14.24;86.65
46944;BME280;32678;43.852;25.952;2023-04-01T18:01:49;99715.09;;;14.10;87.24
46944;BME280;32678;43.852;25.952;2023-04-01T18:06:59;99724.53;;;14.27;85.66
46944;BME280;32678;43.852;25.952;2023-04-01T18:12:05;99719.03;;;14.03;85.31
46944;BME280;32678;43.852;25.952;2023-04-01T18:17:18;99715.56;;;14.03;86.26
46944;BME280;32678;43.852;25.952;2023-04-01T18:22:19;99718.31;;;14.01;87.41
46944;BME280;32678;43.852;25.952;2023-04-01T18:27:17;99724.19;;;14.19;86.44
46944;BME280;32678;43.852;25.952;2023-04-01T18:32:22;99727.66;;;14.19;86.49
46944;BME280;32678;43.852;25.952;2023-04-01T18:37:24;99735.03;;;14.14;86.71
46944;BME280;32678;43.852;25.952;2023-04-01T18:42:24;99748.81;;;13.77;86.82
46944;BME280;32678;43.852;25.952;2023-04-01T18:47:27;99754.84;;;13.51;88.71
46944;BME280;32678;43.852;25.952;2023-04-01T18:52:28;99771.94;;;12.99;92.49
46944;BME280;32678;43.852;25.952;2023-04-01T18:57:38;99770.03;;;13.01;93.82
46944;BME280;32678;43.852;25.952;2023-04-01T19:02:36;99770.09;;;12.40;95.97
46944;BME280;32678;43.852;25.952;2023-04-01T19:07:43;99809.75;;;12.51;96.70
46944;BME280;32678;43.852;25.952;2023-04-01T19:12:41;99814.13;;;12.82;96.08
46944;BME280;32678;43.852;25.952;2023-04-01T19:17:47;99806.28;;;12.96;95.00
46944;BME280;32678;43.852;25.952;2023-04-01T19:22:59;99797.19;;;12.72;95.56
46944;BME280;32678;43.852;25.952;2023-04-01T19:28:02;99807.63;;;12.74;95.75
46944;BME280;32678;43.852;25.952;2023-04-01T19:33:07;99810.16;;;12.75;96.50
46944;BME280;32678;43.852;25.952;2023-04-01T19:38:10;99806.50;;;12.78;97.21
46944;BME280;32678;43.852;25.952;2023-04-01T19:43:09;99807.56;;;12.59;99.37
46944;BME280;32678;43.852;25.952;2023-04-01T19:48:12;99800.00;;;12.69;99.16
46944;BME280;32678;43.852;25.952;2023-04-01T19:53:13;99807.63;;;12.74;99.61
46944;BME280;32678;43.852;25.952;2023-04-01T19:58:14;99820.09;;;12.70;100.00
46944;BME280;32678;43.852;25.952;2023-04-01T20:03:15;99815.19;;;12.64;100.00
46944;BME280;32678;43.852;25.952;2023-04-01T20:08:21;99827.25;;;12.98;97.85
46944;BME280;32678;43.852;25.952;2023-04-01T20:13:23;99828.31;;;12.80;94.01
46944;BME280;32678;43.852;25.952;2023-04-01T20:18:23;99832.28;;;12.87;92.64
46944;BME280;32678;43.852;25.952;2023-04-01T20:23:30;99832.66;;;13.11;92.92
46944;BME280;32678;43.852;25.952;2023-04-01T20:28:30;99825.38;;;13.16;92.28
46944;BME280;32678;43.852;25.952;2023-04-01T20:33:35;99825.91;;;12.91;90.31
46944;BME280;32678;43.852;25.952;2023-04-01T20:38:51;99843.84;;;12.53;89.09
46944;BME280;32678;43.852;25.952;2023-04-01T20:43:57;99844.88;;;12.50;87.83
46944;BME280;32678;43.852;25.952;2023-04-01T20:54:16;99847.19;;;11.92;85.09
46944;BME280;32678;43.852;25.952;2023-04-01T20:59:27;99852.59;;;11.72;86.19
46944;BME280;32678;43.852;25.952;2023-04-01T21:04:30;99854.34;;;11.89;85.29
46944;BME280;32678;43.852;25.952;2023-04-01T21:09:35;99850.47;;;11.96;85.99
46944;BME280;32678;43.852;25.952;2023-04-01T21:14:44;99860.63;;;12.35;84.78
46944;BME280;32678;43.852;25.952;2023-04-01T21:19:47;99869.78;;;12.28;83.10
46944;BME280;32678;43.852;25.952;2023-04-01T21:24:56;99874.59;;;12.20;81.82
46944;BME280;32678;43.852;25.952;2023-04-01T21:29:57;99866.41;;;12.26;80.66
46944;BME280;32678;43.852;25.952;2023-04-01T21:34:56;99871.38;;;11.82;80.13
46944;BME280;32678;43.852;25.952;2023-04-01T21:40:02;99878.22;;;11.67;82.49
46944;BME280;32678;43.852;25.952;2023-04-01T21:45:14;99882.00;;;11.61;81.71
46944;BME280;32678;43.852;25.952;2023-04-01T21:50:33;99883.56;;;11.48;81.85
46944;BME280;32678;43.852;25.952;2023-04-01T22:01:02;99873.47;;;10.88;85.68
46944;BME280;32678;43.852;25.952;2023-04-01T22:06:07;99874.53;;;10.83;86.61
46944;BME280;32678;43.852;25.952;2023-04-01T22:11:07;99875.03;;;10.73;87.56
46944;BME280;32678;43.852;25.952;2023-04-01T22:16:10;99873.50;;;10.69;88.33
46944;BME280;32678;43.852;25.952;2023-04-01T22:21:10;99884.25;;;10.63;88.46
46944;BME280;32678;43.852;25.952;2023-04-01T22:26:10;99881.84;;;10.77;88.15
46944;BME280;32678;43.852;25.952;2023-04-01T22:31:10;99881.91;;;10.75;88.32
46944;BME280;32678;43.852;25.952;2023-04-01T22:36:15;99885.88;;;10.84;89.02
46944;BME280;32678;43.852;25.952;2023-04-01T22:41:16;99857.69;;;10.52;89.85
46944;BME280;32678;43.852;25.952;2023-04-01T22:46:20;99881.84;;;10.58;90.43
46944;BME280;32678;43.852;25.952;2023-04-01T22:51:20;99889.56;;;10.61;90.26
46944;BME280;32678;43.852;25.952;2023-04-01T22:56:20;99875.75;;;10.76;89.26
46944;BME280;32678;43.852;25.952;2023-04-01T23:01:19;99879.13;;;10.97;88.01
46944;BME280;32678;43.852;25.952;2023-04-01T23:06:20;99885.34;;;10.95;88.25
46944;BME280;32678;43.852;25.952;2023-04-01T23:11:21;99882.91;;;10.73;88.97
46944;BME280;32678;43.852;25.952;2023-04-01T23:16:22;99887.44;;;10.69;88.91
46944;BME280;32678;43.852;25.952;2023-04-01T23:21:24;99880.91;;;10.78;88.11
46944;BME280;32678;43.852;25.952;2023-04-01T23:26:25;99883.06;;;10.70;88.52
46944;BME280;32678;43.852;25.952;2023-04-01T23:31:29;99872.91;;;10.62;89.09
46944;BME280;32678;43.852;25.952;2023-04-01T23:36:28;99866.06;;;10.60;89.95
46944;BME280;32678;43.852;25.952;2023-04-01T23:41:25;99883.25;;;10.65;90.70
46944;BME280;32678;43.852;25.952;2023-04-01T23:46:23;99884.41;;;10.78;90.01
46944;BME280;32678;43.852;25.952;2023-04-01T23:51:21;99889.13;;;10.89;90.34
46944;BME280;32678;43.852;25.952;2023-04-01T23:56:20;99881.38;;;10.86;89.47
